Time;durP1;ratioP1;P1;durP2;ratioP2;P2;SDS_P1;SDS_P2;PMS_P1;PMS_P2;Temp;Humidity;BMP_temperature;BMP_pressure;BME280_temperature;BME280_humidity;BME280_pressure;Samples;Min_cycle;Max_cycle;Signal;HPM_P1;HPM_P2
2023/07/26 00:00:03;;;;;;;27.03;9.63;;;;;;;-143.84;100.00;44904.34;4970327;28;20445;-50
2023/07/26 00:02:30;;;;;;;17.80;9.57;;;;;;;-143.84;100.00;44898.66;4970459;28;20584;-52
2023/07/26 00:04:57;;;;;;;20.77;9.77;;;;;;;-143.84;100.00;44915.78;4970051;28;20490;-51
2023/07/26 00:07:24;;;;;;;19.20;10.00;;;;;;;-143.84;100.00;44953.88;4970541;28;20516;-52
2023/07/26 00:09:53;;;;;;;15.83;9.43;;;;;;;-143.84;100.00;44904.34;4970662;28;20441;-52
2023/07/26 00:12:20;;;;;;;17.23;8.80;;;;;;;-143.84;100.00;44963.38;4970180;28;20448;-52
2023/07/26 00:14:47;;;;;;;18.80;10.10;;;;;;;-143.84;100.00;44986.22;4970111;28;20952;-52
2023/07/26 00:17:14;;;;;;;21.30;9.33;;;;;;;-143.84;100.00;44969.09;4970192;28;20480;-51
2023/07/26 00:19:41;;;;;;;35.47;8.67;;;;;;;-143.84;100.00;44950.06;4970170;28;20447;-52
2023/07/26 00:22:08;;;;;;;21.73;9.13;;;;;;;-143.84;100.00;44969.09;4970243;28;20453;-52
2023/07/26 00:24:35;;;;;;;19.47;9.07;;;;;;;-143.84;100.00;44953.88;4970068;28;20550;-51
2023/07/26 00:27:04;;;;;;;22.50;9.13;;;;;;;-143.84;100.00;44948.16;4969863;28;20585;-51
2023/07/26 00:29:31;;;;;;;18.63;10.20;;;;;;;-143.84;100.00;44898.66;4970173;28;20888;-52
2023/07/26 00:31:58;;;;;;;23.97;9.90;;;;;;;-143.84;100.00;44892.94;4973579;28;20481;-52
2023/07/26 00:34:25;;;;;;;23.80;10.00;;;;;;;-143.84;100.00;44881.50;4973616;28;20480;-52
2023/07/26 00:36:52;;;;;;;24.00;10.77;;;;;;;-143.84;100.00;44883.41;4972122;28;20479;-51
2023/07/26 00:39:19;;;;;;;19.80;11.30;;;;;;;-143.84;100.00;44858.66;4972129;28;20449;-51
2023/07/26 00:41:47;;;;;;;20.30;10.73;;;;;;;-143.84;100.00;44877.69;4973647;28;20515;-60
2023/07/26 00:44:15;;;;;;;22.37;9.87;;;;;;;-143.84;100.00;44908.16;4973993;28;20432;-60
2023/07/26 00:46:42;;;;;;;27.73;10.30;;;;;;;-143.84;100.00;44896.75;4973855;28;20476;-60
2023/07/26 00:49:09;;;;;;;18.70;10.00;;;;;;;-143.84;100.00;44911.97;4973443;28;20450;-60
2023/07/26 00:51:38;;;;;;;21.93;10.80;;;;;;;-143.84;100.00;44898.66;4973417;28;20988;-59
2023/07/26 00:54:06;;;;;;;22.40;11.23;;;;;;;-143.84;100.00;44866.28;4973300;28;20532;-60
2023/07/26 00:56:34;;;;;;;14.03;10.10;;;;;;;-143.84;100.00;44919.59;4973359;28;20510;-60
2023/07/26 00:59:01;;;;;;;21.93;11.53;;;;;;;-143.84;100.00;44904.34;4973461;28;20947;-60
2023/07/26 01:01:30;;;;;;;28.20;12.03;;;;;;;-143.84;100.00;44950.06;4973449;28;20452;-60
2023/07/26 01:03:57;;;;;;;19.57;10.00;;;;;;;-143.84;100.00;44946.25;4973420;28;20492;-60
2023/07/26 01:06:31;;;;;;;25.10;10.47;;;;;;;-143.84;100.00;44990.03;4973438;28;20585;-59
2023/07/26 01:09:03;;;;;;;20.00;10.00;;;;;;;-143.84;100.00;44963.38;4973503;28;20440;-60
2023/07/26 01:11:37;;;;;;;17.63;10.40;;;;;;;-143.84;100.00;45039.53;4973560;28;20512;-59
2023/07/26 01:14:14;;;;;;;18.03;10.40;;;;;;;-143.84;100.00;44993.84;4973439;28;20554;-60
2023/07/26 01:16:43;;;;;;;15.80;9.70;;;;;;;-143.84;100.00;45033.84;4973787;28;20447;-59
2023/07/26 01:19:10;;;;;;;16.30;11.23;;;;;;;-143.84;100.00;44999.56;4973324;28;20505;-60
2023/07/26 01:21:38;;;;;;;17.13;10.33;;;;;;;-143.84;100.00;45012.88;4973489;28;20445;-60
2023/07/26 01:24:06;;;;;;;22.90;11.57;;;;;;;-143.84;100.00;45003.38;4973126;28;20456;-60
2023/07/26 01:26:33;;;;;;;21.23;10.87;;;;;;;-143.84;100.00;45022.41;4972707;28;20567;-60
2023/07/26 01:29:00;;;;;;;18.67;11.93;;;;;;;-143.84;100.00;45012.88;4972853;28;20549;-60
2023/07/26 01:31:27;;;;;;;21.70;11.83;;;;;;;-143.84;100.00;45043.34;4973104;28;20451;-60
2023/07/26 01:33:55;;;;;;;30.57;10.53;;;;;;;-143.84;100.00;45043.34;4972921;28;20448;-60
2023/07/26 01:36:23;;;;;;;25.03;11.27;;;;;;;-143.84;100.00;45024.31;4972941;28;20508;-60
2023/07/26 01:38:53;;;;;;;15.50;10.30;;;;;;;-143.84;100.00;45010.97;4953790;29;20466;-60
2023/07/26 01:41:21;;;;;;;21.73;11.67;;;;;;;-143.84;100.00;44997.66;4953270;28;20481;-60
2023/07/26 01:43:48;;;;;;;25.77;12.30;;;;;;;-143.84;100.00;45026.22;4953606;29;20541;-60
2023/07/26 01:46:16;;;;;;;25.40;11.90;;;;;;;-143.84;100.00;45001.47;4953319;29;20493;-60
2023/07/26 01:48:43;;;;;;;19.00;11.07;;;;;;;-143.84;100.00;45035.75;4953416;29;20516;-60
2023/07/26 01:51:10;;;;;;;20.50;10.47;;;;;;;-143.84;100.00;45009.09;4953398;29;20466;-60
2023/07/26 01:53:37;;;;;;;29.77;12.40;;;;;;;-143.84;100.00;45016.69;4962278;28;20488;-60
2023/07/26 01:56:06;;;;;;;19.30;11.70;;;;;;;-143.84;100.00;45022.41;4972830;28;20922;-59
2023/07/26 01:58:33;;;;;;;23.37;11.60;;;;;;;-143.84;100.00;45024.31;4972622;28;20442;-60
2023/07/26 02:01:03;;;;;;;19.23;10.93;;;;;;;-143.84;100.00;45005.28;4972722;28;20504;-60
2023/07/26 02:03:30;;;;;;;24.67;12.47;;;;;;;-143.84;100.00;44999.56;4972255;28;20514;-60
2023/07/26 02:05:57;;;;;;;20.70;12.13;;;;;;;-143.84;100.00;44999.56;4972241;28;20582;-60
2023/07/26 02:08:24;;;;;;;37.60;12.83;;;;;;;-143.84;100.00;44997.66;4972216;28;20473;-60
2023/07/26 02:10:51;;;;;;;29.27;11.37;;;;;;;-143.84;100.00;44984.31;4972357;28;20441;-60
2023/07/26 02:13:20;;;;;;;23.83;11.73;;;;;;;-143.84;100.00;45035.75;4972379;28;20453;-59
2023/07/26 02:15:47;;;;;;;23.50;12.50;;;;;;;-143.84;100.00;45033.84;4972101;28;20882;-60
2023/07/26 02:18:14;;;;;;;41.23;14.23;;;;;;;-143.84;100.00;45001.47;4972534;28;20507;-60
2023/07/26 02:20:41;;;;;;;20.20;13.47;;;;;;;-143.84;100.00;45014.78;4972282;28;20473;-60
2023/07/26 02:23:08;;;;;;;20.20;11.63;;;;;;;-143.84;100.00;45003.38;4972140;28;20531;-60
2023/07/26 02:25:35;;;;;;;16.60;11.20;;;;;;;-143.84;100.00;45056.69;4972169;28;20489;-60
2023/07/26 02:28:02;;;;;;;21.13;11.90;;;;;;;-143.84;100.00;45031.94;4972270;28;20536;-60
2023/07/26 02:30:31;;;;;;;31.13;13.70;;;;;;;-143.84;100.00;45022.41;4972033;28;20472;-60
2023/07/26 02:32:58;;;;;;;23.40;12.67;;;;;;;-143.84;100.00;45047.16;4971780;28;20455;-59
2023/07/26 02:35:25;;;;;;;19.80;11.60;;;;;;;-143.84;100.00;45016.69;4972252;28;20465;-60
2023/07/26 02:37:52;;;;;;;29.43;11.50;;;;;;;-143.84;100.00;45045.25;4971705;28;20506;-60
2023/07/26 02:40:19;;;;;;;30.50;12.17;;;;;;;-143.84;100.00;45068.13;4971522;28;20440;-60
2023/07/26 02:42:46;;;;;;;31.40;11.07;;;;;;;-143.84;99.79;45077.63;4971727;28;20488;-60
2023/07/26 02:45:13;;;;;;;22.27;11.33;;;;;;;-143.84;99.09;45064.31;4971591;28;20477;-60
2023/07/26 02:47:41;;;;;;;21.40;11.57;;;;;;;-143.84;98.49;45049.06;4971758;28;20445;-59
2023/07/26 02:50:09;;;;;;;19.70;11.80;;;;;;;-143.84;97.71;45077.63;4971509;28;20476;-60
2023/07/26 02:52:36;;;;;;;14.73;11.10;;;;;;;-143.84;97.10;45090.97;4971738;28;21299;-60
2023/07/26 02:55:03;;;;;;;15.50;10.70;;;;;;;-143.84;96.33;45064.31;4971828;28;20544;-60
2023/07/26 02:57:30;;;;;;;26.47;13.27;;;;;;;-143.84;95.53;45087.16;4971683;28;20436;-60
2023/07/26 02:59:58;;;;;;;19.40;11.47;;;;;;;-143.84;94.56;45087.16;4971699;28;20472;-60
2023/07/26 03:02:25;;;;;;;28.03;12.43;;;;;;;-143.84;94.14;45083.34;4971796;28;20447;-59
2023/07/26 03:04:53;;;;;;;21.60;12.23;;;;;;;-143.84;93.92;45090.97;4971688;28;21292;-60
2023/07/26 03:07:20;;;;;;;25.90;12.37;;;;;;;-143.84;93.92;45098.56;4971366;28;20519;-59
2023/07/26 03:09:48;;;;;;;21.27;10.93;;;;;;;-143.84;93.62;45110.00;4971309;28;20511;-60
2023/07/26 03:12:15;;;;;;;23.77;11.47;;;;;;;-143.84;93.67;45102.38;4971652;28;20441;-59
2023/07/26 03:14:42;;;;;;;19.27;10.97;;;;;;;-143.84;93.46;45075.72;4971159;28;21177;-60
2023/07/26 03:17:09;;;;;;;27.50;12.13;;;;;;;-143.84;93.11;45100.47;4971345;28;20523;-59
2023/07/26 03:19:36;;;;;;;19.33;11.30;;;;;;;-143.84;93.04;45106.19;4971165;28;20444;-60
2023/07/26 03:22:05;;;;;;;26.53;11.93;;;;;;;-143.84;92.64;45085.25;4970958;28;20441;-60
2023/07/26 03:24:32;;;;;;;16.67;10.63;;;;;;;-143.84;92.61;45077.63;4971067;28;20537;-59
2023/07/26 03:27:00;;;;;;;34.77;12.37;;;;;;;-143.84;92.43;45087.16;4970811;28;20557;-56
2023/07/26 03:29:27;;;;;;;22.93;11.87;;;;;;;-143.84;92.19;45094.78;4970450;28;20496;-56
2023/07/26 03:31:54;;;;;;;21.67;11.47;;;;;;;-143.84;91.63;45077.63;4970362;28;20483;-56
2023/07/26 03:34:21;;;;;;;25.00;11.90;;;;;;;-143.84;90.79;45089.06;4970047;28;20545;-56
2023/07/26 03:36:48;;;;;;;26.60;11.20;;;;;;;-143.84;90.01;45087.16;4970166;28;20933;-56
2023/07/26 03:39:17;;;;;;;25.20;11.40;;;;;;;-143.84;89.54;45087.16;4970068;28;20506;-56
2023/07/26 03:41:44;;;;;;;18.50;10.83;;;;;;;-143.84;89.12;45083.34;4969965;28;20452;-56
2023/07/26 03:44:11;;;;;;;20.73;12.73;;;;;;;-143.84;88.62;45081.44;4969935;28;20480;-56
2023/07/26 03:46:38;;;;;;;17.13;11.00;;;;;;;-143.84;88.40;45068.13;4969776;28;20587;-55
2023/07/26 03:49:05;;;;;;;17.30;11.00;;;;;;;-143.84;87.17;45052.88;4969305;28;20547;-55
2023/07/26 03:51:32;;;;;;;26.13;12.20;;;;;;;-143.84;87.08;45064.31;4969646;28;20452;-56
2023/07/26 03:53:59;;;;;;;23.93;12.10;;;;;;;-143.84;85.45;45050.97;4969826;28;20592;-56
2023/07/26 03:56:27;;;;;;;16.33;11.67;;;;;;;-143.84;83.59;45041.44;4970010;28;20454;-56
2023/07/26 03:58:54;;;;;;;19.40;11.33;;;;;;;-143.84;82.69;45079.53;4969903;28;20449;-56
2023/07/26 04:01:21;;;;;;;27.23;10.43;;;;;;;-143.84;81.73;45050.97;4970088;28;20485;-56
2023/07/26 04:03:49;;;;;;;15.73;10.67;;;;;;;-143.84;81.01;45043.34;4969672;28;20442;-56
2023/07/26 04:06:16;;;;;;;18.60;10.97;;;;;;;-143.84;80.30;45098.56;4971398;28;20516;-56
2023/07/26 04:08:43;;;;;;;16.10;10.30;;;;;;;-143.84;79.25;45077.63;4973186;28;20454;-56
2023/07/26 04:11:12;;;;;;;15.00;10.50;;;;;;;-143.84;79.29;45056.69;4954276;29;20447;-56
2023/07/26 04:13:41;;;;;;;14.90;10.53;;;;;;;-143.84;77.45;45024.31;4954415;29;20490;-56
2023/07/26 04:16:15;;;;;;;19.73;10.40;;;;;;;-143.84;77.41;45071.91;4954129;29;20470;-56
2023/07/26 04:18:42;;;;;;;20.23;11.00;;;;;;;-143.84;75.67;45045.25;4954304;29;20546;-56
2023/07/26 04:21:13;;;;;;;16.67;9.53;;;;;;;-143.84;75.48;45056.69;4954488;29;20485;-56
2023/07/26 04:23:40;;;;;;;18.43;10.60;;;;;;;-143.84;74.47;45043.34;4954205;29;21154;-56
2023/07/26 04:26:08;;;;;;;15.07;9.93;;;;;;;-143.84;73.19;45020.50;4954063;29;20486;-56
2023/07/26 04:28:35;;;;;;;20.17;10.77;;;;;;;-143.84;72.56;45035.75;4953971;29;20447;-56
2023/07/26 04:31:03;;;;;;;20.83;9.90;;;;;;;-143.84;71.77;45054.78;4953972;29;20455;-56
2023/07/26 04:33:31;;;;;;;20.70;10.20;;;;;;;-143.84;71.24;45043.34;4953864;29;20445;-55
2023/07/26 04:35:58;;;;;;;21.60;9.90;;;;;;;-143.84;71.43;45043.34;4953899;29;20490;-56
2023/07/26 04:38:25;;;;;;;23.80;10.47;;;;;;;-143.84;70.72;45022.41;4953725;29;20442;-56
2023/07/26 04:40:53;;;;;;;14.27;9.80;;;;;;;-143.84;70.84;45024.31;4953927;29;20541;-56
2023/07/26 04:43:20;;;;;;;22.13;10.10;;;;;;;-143.84;70.20;45041.44;4953786;29;20444;-56
2023/07/26 04:45:48;;;;;;;30.33;10.43;;;;;;;-143.84;69.66;45047.16;4953567;29;20441;-55
2023/07/26 04:48:17;;;;;;;15.10;10.33;;;;;;;-143.84;69.51;45064.31;4953802;29;20435;-56
2023/07/26 04:50:44;;;;;;;18.70;10.30;;;;;;;-143.84;67.76;45018.59;4953549;29;20514;-55
2023/07/26 04:53:11;;;;;;;25.93;11.03;;;;;;;-143.84;68.03;45030.03;4969343;28;20939;-56
2023/07/26 04:55:43;;;;;;;26.17;9.90;;;;;;;-143.84;67.98;45018.59;4972703;28;20560;-56
2023/07/26 04:58:10;;;;;;;16.63;10.53;;;;;;;-143.84;68.18;45047.16;4972907;28;20444;-56
2023/07/26 05:00:39;;;;;;;27.37;10.60;;;;;;;-143.84;68.20;45026.22;4972924;28;20540;-55
2023/07/26 05:03:06;;;;;;;13.17;9.57;;;;;;;-143.84;67.98;45030.03;4972542;28;20446;-55
2023/07/26 05:05:35;;;;;;;19.07;11.03;;;;;;;-143.84;67.33;45047.16;4972634;28;20443;-56
2023/07/26 05:08:02;;;;;;;38.90;11.70;;;;;;;-143.84;67.24;45016.69;4972741;28;20497;-56
2023/07/26 05:10:30;;;;;;;16.83;10.90;;;;;;;-143.84;66.10;45014.78;4972723;28;20527;-55
2023/07/26 05:12:57;;;;;;;20.37;10.67;;;;;;;-143.84;65.59;45014.78;4972841;28;20448;-55
2023/07/26 05:15:24;;;;;;;17.33;10.47;;;;;;;-143.84;65.46;45035.75;4972764;28;20510;-55
2023/07/26 05:17:52;;;;;;;19.93;10.13;;;;;;;-143.84;64.38;45009.09;4971491;28;20527;-55
2023/07/26 05:20:19;;;;;;;17.07;10.53;;;;;;;-143.84;63.60;45018.59;4972581;28;20442;-55
2023/07/26 05:22:47;;;;;;;19.80;11.13;;;;;;;-143.84;63.58;44997.66;4972427;28;20495;-55
2023/07/26 05:25:14;;;;;;;16.63;10.40;;;;;;;-143.84;60.90;45014.78;4972475;28;20507;-55
2023/07/26 05:27:41;;;;;;;12.17;9.53;;;;;;;-143.84;60.94;45001.47;4972350;28;20513;-55
2023/07/26 05:30:09;;;;;;;14.17;9.77;;;;;;;-143.84;59.84;44991.94;4972297;28;20454;-56
2023/07/26 05:32:36;;;;;;;20.60;10.03;;;;;;;-143.84;58.73;45028.13;4972216;28;20447;-56
2023/07/26 05:35:04;;;;;;;21.27;11.73;;;;;;;-143.84;58.84;45009.09;4972143;28;20453;-56
2023/07/26 05:37:34;;;;;;;18.20;10.07;;;;;;;-143.84;59.36;44984.31;4972119;28;20457;-56
2023/07/26 05:40:05;;;;;;;12.50;9.03;;;;;;;-143.84;58.82;45009.09;4972170;28;20445;-56
2023/07/26 05:42:32;;;;;;;18.40;10.70;;;;;;;-143.84;60.38;44984.31;4972407;28;20533;-56
2023/07/26 05:44:59;;;;;;;16.50;10.10;;;;;;;-143.84;59.98;45003.38;4972118;28;20445;-56
2023/07/26 05:47:26;;;;;;;19.43;10.77;;;;;;;-143.84;59.80;44999.56;4971964;28;21347;-56
2023/07/26 05:49:53;;;;;;;18.13;10.80;;;;;;;-143.84;59.67;45009.09;4972130;28;20469;-56
2023/07/26 05:52:20;;;;;;;16.97;11.23;;;;;;;-143.84;59.02;44993.84;4971790;28;20533;-56
2023/07/26 05:54:47;;;;;;;22.30;10.97;;;;;;;-143.84;59.83;45007.19;4971726;28;20552;-56
2023/07/26 05:57:16;;;;;;;26.67;11.63;;;;;;;-143.84;60.69;44972.91;4971882;28;20896;-55
2023/07/26 05:59:43;;;;;;;18.20;10.83;;;;;;;-143.84;61.11;44986.22;4971846;28;20888;-55
2023/07/26 06:02:10;;;;;;;21.83;11.53;;;;;;;-143.84;59.03;44990.03;4971700;28;20812;-53
2023/07/26 06:04:37;;;;;;;19.53;10.07;;;;;;;-143.84;59.13;44991.94;4971487;28;21002;-53
2023/07/26 06:07:05;;;;;;;17.90;10.60;;;;;;;-143.84;59.46;45007.19;4971457;28;20493;-55
2023/07/26 06:09:32;;;;;;;14.47;9.57;;;;;;;-143.84;59.30;44995.75;4971513;28;20448;-55
2023/07/26 06:11:59;;;;;;;17.90;10.33;;;;;;;-143.84;59.49;44997.66;4971299;28;20508;-56
2023/07/26 06:14:29;;;;;;;12.40;10.07;;;;;;;-143.84;59.39;44976.72;4971722;28;20473;-50
2023/07/26 06:16:56;;;;;;;12.70;10.67;;;;;;;-143.84;61.01;45009.09;4971528;28;20468;-50
2023/07/26 06:19:23;;;;;;;23.50;11.87;;;;;;;-143.84;61.16;44995.75;4971330;28;20474;-51
2023/07/26 06:21:55;;;;;;;23.80;10.20;;;;;;;-143.84;61.06;44972.91;4971271;28;20496;-51
2023/07/26 06:24:22;;;;;;;14.43;10.70;;;;;;;-143.84;60.64;44980.53;4971503;28;21207;-52
2023/07/26 06:26:49;;;;;;;16.20;10.60;;;;;;;-143.84;60.62;44995.75;4971109;28;21086;-51
2023/07/26 06:29:16;;;;;;;17.20;10.17;;;;;;;-143.84;58.96;44995.75;4970810;28;20508;-51
2023/07/26 06:31:44;;;;;;;21.97;11.60;;;;;;;-143.84;59.79;44974.81;4971607;28;20469;-52
2023/07/26 06:34:12;;;;;;;23.70;11.87;;;;;;;-143.84;59.12;44980.53;4971525;28;20441;-51
2023/07/26 06:36:39;;;;;;;16.47;10.80;;;;;;;-143.84;57.94;44980.53;4971181;28;20446;-51
2023/07/26 06:39:06;;;;;;;21.30;11.70;;;;;;;-143.84;57.32;44990.03;4971359;28;20473;-50
2023/07/26 06:41:33;;;;;;;19.20;11.60;;;;;;;-143.84;59.08;44978.63;4971215;28;20933;-51
2023/07/26 06:44:00;;;;;;;14.70;10.70;;;;;;;-143.84;58.39;44984.31;4969851;28;20486;-50
2023/07/26 06:46:27;;;;;;;18.07;9.70;;;;;;;-143.84;58.18;44988.13;4970772;28;20956;-51
2023/07/26 06:48:56;;;;;;;17.60;10.20;;;;;;;-143.84;59.12;44953.88;4971038;28;20449;-52
2023/07/26 06:51:23;;;;;;;23.23;10.90;;;;;;;-143.84;57.09;44980.53;4971282;28;20442;-51
2023/07/26 06:53:50;;;;;;;14.80;10.77;;;;;;;-143.84;57.26;44969.09;4970723;28;20446;-51
2023/07/26 06:56:17;;;;;;;18.40;11.00;;;;;;;-143.84;56.27;44969.09;4971165;28;20874;-51
2023/07/26 06:58:44;;;;;;;16.33;11.13;;;;;;;-143.84;56.34;44997.66;4970658;28;21125;-51
2023/07/26 07:01:20;;;;;;;18.93;10.90;;;;;;;-143.84;55.26;44986.22;4970983;28;20533;-51
2023/07/26 07:03:47;;;;;;;19.83;10.47;;;;;;;-143.84;55.89;45003.38;4953418;28;20528;-51
2023/07/26 07:06:17;;;;;;;28.37;12.20;;;;;;;-143.84;55.76;44953.88;4970939;28;20863;-51
2023/07/26 07:08:44;;;;;;;18.33;11.00;;;;;;;-143.84;55.28;44986.22;4970899;28;20843;-51
2023/07/26 07:11:11;;;;;;;16.10;10.33;;;;;;;-143.84;55.55;44961.47;4970527;28;20854;-51
2023/07/26 07:13:38;;;;;;;14.27;10.63;;;;;;;-143.84;56.13;44953.88;4970462;28;20439;-52
2023/07/26 07:16:06;;;;;;;20.63;11.77;;;;;;;-143.84;54.70;44948.16;4970564;28;20438;-51
2023/07/26 07:18:33;;;;;;;13.63;10.27;;;;;;;-143.84;55.07;44995.75;4970695;28;20474;-51
2023/07/26 07:21:01;;;;;;;17.90;10.87;;;;;;;-143.84;54.41;44984.31;4970667;28;20445;-51
2023/07/26 07:23:30;;;;;;;14.03;10.30;;;;;;;-143.84;53.87;44950.06;4970750;28;20445;-51
2023/07/26 07:25:57;;;;;;;18.63;12.10;;;;;;;-143.84;54.03;44940.53;4970720;28;20446;-52
2023/07/26 07:28:25;;;;;;;24.87;12.33;;;;;;;-143.84;54.65;44950.06;4970524;28;20487;-50
2023/07/26 07:30:52;;;;;;;31.73;11.80;;;;;;;-143.84;53.16;44929.09;4970414;28;21045;-51
2023/07/26 07:33:19;;;;;;;14.50;10.60;;;;;;;-143.84;53.61;44942.44;4970528;28;20457;-51
2023/07/26 07:35:46;;;;;;;22.73;10.90;;;;;;;-143.84;50.91;44950.06;4970624;28;20512;-51
2023/07/26 07:38:14;;;;;;;15.40;11.43;;;;;;;-143.84;53.95;44946.25;4970500;28;20450;-51
2023/07/26 07:40:42;;;;;;;16.20;11.07;;;;;;;-143.84;53.58;44948.16;4969709;28;20446;-51
2023/07/26 07:43:09;;;;;;;15.43;11.60;;;;;;;-143.84;55.77;44976.72;4970312;28;20454;-50
2023/07/26 07:45:40;;;;;;;18.90;10.90;;;;;;;-143.84;56.61;44980.53;4970172;28;20438;-51
2023/07/26 07:48:08;;;;;;;21.17;11.73;;;;;;;-143.84;55.99;44942.44;4970173;28;20573;-51
2023/07/26 07:50:36;;;;;;;22.77;11.80;;;;;;;-143.84;56.00;44965.28;4970247;28;20501;-51
2023/07/26 07:53:03;;;;;;;22.30;11.53;;;;;;;-143.84;57.80;44961.47;4970109;28;20947;-51
2023/07/26 07:55:31;;;;;;;21.40;11.80;;;;;;;-143.84;58.08;44950.06;4969856;28;20492;-52
2023/07/26 07:58:01;;;;;;;20.57;10.70;;;;;;;-143.84;55.82;44950.06;4970407;28;20453;-52
2023/07/26 08:00:28;;;;;;;22.33;12.00;;;;;;;-143.84;52.45;44950.06;4970042;28;20480;-51
2023/07/26 08:02:55;;;;;;;17.73;11.03;;;;;;;-143.84;51.87;44969.09;4970154;28;20812;-51
2023/07/26 08:05:25;;;;;;;18.70;11.27;;;;;;;-143.84;51.57;44953.88;4970045;28;20453;-51
2023/07/26 08:07:52;;;;;;;15.53;11.00;;;;;;;-143.84;49.37;44917.69;4970009;28;20485;-51
2023/07/26 08:10:20;;;;;;;24.60;11.70;;;;;;;-143.84;49.22;44950.06;4969844;28;20529;-51
2023/07/26 08:12:47;;;;;;;17.80;10.03;;;;;;;-143.84;48.08;44946.25;4970361;28;20454;-51
2023/07/26 08:15:15;;;;;;;16.93;10.13;;;;;;;-143.84;48.60;44951.97;4969967;28;20449;-52
2023/07/26 08:17:42;;;;;;;18.80;10.93;;;;;;;-143.84;48.36;44957.66;4969900;28;20508;-51
2023/07/26 08:20:11;;;;;;;22.93;11.43;;;;;;;-143.84;47.12;44929.09;4970037;28;20442;-51
2023/07/26 08:22:38;;;;;;;21.33;11.33;;;;;;;-143.84;48.00;44902.44;4969948;28;20458;-52
2023/07/26 08:25:07;;;;;;;12.90;9.40;;;;;;;-143.84;43.96;44908.16;4969775;28;20442;-52
2023/07/26 08:27:34;;;;;;;16.63;10.47;;;;;;;-143.84;44.55;44898.66;4970223;28;20485;-51
2023/07/26 08:30:01;;;;;;;18.07;10.70;;;;;;;-143.84;44.99;44911.97;4970191;28;20446;-51
2023/07/26 08:32:30;;;;;;;16.20;10.80;;;;;;;-143.84;45.22;44896.75;4970073;28;20493;-51
2023/07/26 08:34:57;;;;;;;20.30;11.13;;;;;;;-143.84;45.07;44925.31;4969535;28;20598;-51
2023/07/26 08:37:24;;;;;;;16.10;10.60;;;;;;;-143.84;44.96;44946.25;4969944;28;20434;-51
2023/07/26 08:39:51;;;;;;;17.07;10.77;;;;;;;-143.84;43.95;44934.81;4969612;28;20504;-50
2023/07/26 08:42:18;;;;;;;15.87;10.10;;;;;;;-143.84;44.77;44881.50;4969398;28;20897;-52
2023/07/26 08:44:48;;;;;;;19.17;10.57;;;;;;;-143.84;43.19;44917.69;4969755;28;20512;-52
2023/07/26 08:47:16;;;;;;;12.90;10.53;;;;;;;-143.84;43.73;44904.34;4970201;28;20528;-51
2023/07/26 08:49:45;;;;;;;14.57;10.20;;;;;;;-143.84;43.08;44948.16;4969729;28;20948;-52
2023/07/26 08:52:13;;;;;;;17.30;10.87;;;;;;;-143.84;43.02;44908.16;4971645;28;20442;-52
2023/07/26 08:54:41;;;;;;;24.43;11.10;;;;;;;-143.84;44.51;44904.34;4972926;28;20481;-52
2023/07/26 08:57:08;;;;;;;20.90;10.43;;;;;;;-143.84;43.39;44871.97;4973016;28;20442;-52
2023/07/26 08:59:35;;;;;;;15.93;10.03;;;;;;;-143.84;43.01;44908.16;4973019;28;20878;-51
2023/07/26 09:02:04;;;;;;;15.93;10.90;;;;;;;-143.84;43.76;44892.94;4973086;28;21335;-51
2023/07/26 09:04:32;;;;;;;32.03;11.30;;;;;;;-143.84;44.72;44919.59;4973127;28;20802;-50
2023/07/26 09:07:03;;;;;;;14.20;10.20;;;;;;;-143.84;45.70;44919.59;4972627;28;20446;-51
2023/07/26 09:09:31;;;;;;;23.13;10.30;;;;;;;-143.84;44.98;44911.97;4972849;28;20452;-51
2023/07/26 09:11:58;;;;;;;17.93;11.27;;;;;;;-143.84;45.81;44915.78;4972638;28;21185;-50
2023/07/26 09:14:27;;;;;;;13.47;10.10;;;;;;;-143.84;45.67;44934.81;4972456;28;20453;-51
2023/07/26 09:16:56;;;;;;;22.83;10.93;;;;;;;-143.84;46.75;44931.00;4972405;28;20492;-51
2023/07/26 09:19:29;;;;;;;22.17;11.17;;;;;;;-143.84;46.69;44906.25;4972313;28;20809;-52
2023/07/26 09:21:58;;;;;;;13.60;9.90;;;;;;;-143.84;44.24;44919.59;4972800;28;20493;-51
2023/07/26 09:24:33;;;;;;;14.80;11.10;;;;;;;-143.84;45.13;44934.81;4972403;28;20525;-50
2023/07/26 09:27:06;;;;;;;18.50;10.40;;;;;;;-143.84;44.48;44902.44;4972330;28;20449;-52
2023/07/26 09:29:34;;;;;;;24.20;10.83;;;;;;;-143.84;43.38;44902.44;4972664;28;20442;-50
2023/07/26 09:32:01;;;;;;;18.97;11.23;;;;;;;-143.84;43.14;44917.69;4972663;28;20438;-52
2023/07/26 09:34:31;;;;;;;13.60;10.00;;;;;;;-143.84;43.97;44932.91;4972387;28;20449;-51
2023/07/26 09:36:59;;;;;;;16.70;9.80;;;;;;;-143.84;43.39;44908.16;4972290;28;20963;-51
2023/07/26 09:39:28;;;;;;;17.80;9.47;;;;;;;-143.84;43.69;44921.50;4972184;28;20450;-51
2023/07/26 09:42:08;;;;;;;15.03;9.80;;;;;;;-143.84;45.58;44921.50;4972146;28;20450;-50
2023/07/26 09:44:35;;;;;;;14.27;9.33;;;;;;;-143.84;46.55;44902.44;4972131;28;20473;-50
2023/07/26 09:47:03;;;;;;;15.20;10.60;;;;;;;-143.84;47.42;44955.75;4972210;28;20823;-51
2023/07/26 09:49:30;;;;;;;17.33;10.10;;;;;;;-143.84;45.49;44934.81;4971957;28;20539;-51
2023/07/26 09:51:59;;;;;;;14.43;10.27;;;;;;;-143.84;44.41;44917.69;4971926;28;20501;-50
2023/07/26 09:54:28;;;;;;;11.40;9.07;;;;;;;-143.84;42.98;44911.97;4971911;28;20589;-50
2023/07/26 09:56:56;;;;;;;15.70;10.53;;;;;;;-143.84;45.15;44931.00;4971828;28;20518;-51
2023/07/26 09:59:28;;;;;;;15.13;10.93;;;;;;;-143.84;44.39;44925.31;4972003;28;20449;-51
2023/07/26 10:01:56;;;;;;;12.90;10.07;;;;;;;-143.84;44.05;44932.91;4972180;28;20500;-51
2023/07/26 10:04:28;;;;;;;15.83;9.90;;;;;;;-143.84;44.58;44927.19;4971158;28;20939;-51
2023/07/26 10:06:57;;;;;;;19.23;10.53;;;;;;;-143.84;43.76;44911.97;4971613;28;20442;-51
2023/07/26 10:09:25;;;;;;;19.33;11.80;;;;;;;-143.84;44.53;44911.97;4972078;28;20490;-51
2023/07/26 10:11:55;;;;;;;18.77;10.00;;;;;;;-143.84;45.43;44940.53;4971976;28;20446;-52
2023/07/26 10:14:24;;;;;;;14.43;10.50;;;;;;;-143.84;44.44;44932.91;4971737;28;20446;-51
2023/07/26 10:16:54;;;;;;;16.60;10.70;;;;;;;-143.84;44.09;44927.19;4971699;28;20450;-51
2023/07/26 10:19:25;;;;;;;18.93;10.50;;;;;;;-143.84;46.04;44931.00;4971624;28;20442;-51
2023/07/26 10:21:52;;;;;;;16.63;10.93;;;;;;;-143.84;47.09;44919.59;4971410;28;20454;-51
2023/07/26 10:24:23;;;;;;;16.50;10.40;;;;;;;-143.84;43.56;44908.16;4971789;28;20516;-50
2023/07/26 10:26:52;;;;;;;17.20;9.63;;;;;;;-143.84;45.89;44929.09;4971335;28;20454;-49
2023/07/26 10:29:20;;;;;;;18.07;10.60;;;;;;;-143.84;44.60;44908.16;4971551;28;20532;-51
2023/07/26 10:31:47;;;;;;;15.20;10.67;;;;;;;-143.84;47.96;44932.91;4971400;28;20522;-51
2023/07/26 10:34:21;;;;;;;16.97;10.47;;;;;;;-143.84;46.01;44906.25;4971549;28;20442;-51
2023/07/26 10:36:50;;;;;;;18.23;11.00;;;;;;;-143.84;46.61;44908.16;4970982;28;20512;-50
2023/07/26 10:39:17;;;;;;;20.47;10.77;;;;;;;-143.84;44.31;44911.97;4971231;28;20450;-51
2023/07/26 10:41:50;;;;;;;17.00;9.83;;;;;;;-143.84;43.42;44889.13;4971418;28;20513;-50
2023/07/26 10:44:18;;;;;;;13.27;10.87;;;;;;;-143.84;44.35;44904.34;4970547;28;20454;-50
2023/07/26 10:46:53;;;;;;;14.90;10.47;;;;;;;-143.84;46.73;44898.66;4970968;28;20453;-51
2023/07/26 10:49:26;;;;;;;17.23;10.73;;;;;;;-143.84;46.78;44934.81;4971184;28;20492;-50
2023/07/26 10:51:58;;;;;;;16.00;10.60;;;;;;;-143.84;44.24;44898.66;4971240;28;20445;-51
2023/07/26 10:54:36;;;;;;;13.63;10.63;;;;;;;-143.84;42.80;44931.00;4970681;28;20877;-50
2023/07/26 10:57:14;;;;;;;16.70;10.50;;;;;;;-143.84;43.96;44873.88;4970313;28;20438;-51
2023/07/26 10:59:51;;;;;;;19.30;11.20;;;;;;;-143.84;43.96;44913.88;4950908;29;20442;-50
2023/07/26 11:02:35;;;;;;;20.53;10.93;;;;;;;-143.84;44.90;44875.78;4951107;29;20447;-50